sensor_id;sensor_type;location;lat;lon;timestamp;P1;durP1;ratioP1;P2;durP2;ratioP2
76259;SDS011;65076;52.362;6.588;2022-12-20T00:01:49;4.70;;;2.15;;
76259;SDS011;65076;52.362;6.588;2022-12-20T00:04:18;5.53;;;2.25;;
76259;SDS011;65076;52.362;6.588;2022-12-20T00:06:46;2.63;;;2.20;;
76259;SDS011;65076;52.362;6.588;2022-12-20T00:09:14;5.82;;;3.03;;
76259;SDS011;65076;52.362;6.588;2022-12-20T00:11:42;3.45;;;2.30;;
76259;SDS011;65076;52.362;6.588;2022-12-20T00:14:10;4.38;;;2.58;;
76259;SDS011;65076;52.362;6.588;2022-12-20T00:16:39;3.28;;;2.45;;
76259;SDS011;65076;52.362;6.588;2022-12-20T00:19:07;3.53;;;2.33;;
76259;SDS011;65076;52.362;6.588;2022-12-20T00:21:37;4.57;;;2.72;;
76259;SDS011;65076;52.362;6.588;2022-12-20T00:24:06;7.28;;;2.53;;
76259;SDS011;65076;52.362;6.588;2022-12-20T00:26:35;3.33;;;2.47;;
76259;SDS011;65076;52.362;6.588;2022-12-20T00:29:04;4.72;;;2.78;;
76259;SDS011;65076;52.362;6.588;2022-12-20T00:31:33;2.97;;;2.13;;
76259;SDS011;65076;52.362;6.588;2022-12-20T00:34:03;6.32;;;2.50;;
76259;SDS011;65076;52.362;6.588;2022-12-20T00:36:31;3.70;;;2.25;;
76259;SDS011;65076;52.362;6.588;2022-12-20T00:39:00;4.03;;;2.15;;
76259;SDS011;65076;52.362;6.588;2022-12-20T00:41:28;6.70;;;2.10;;
76259;SDS011;65076;52.362;6.588;2022-12-20T00:43:58;3.67;;;2.17;;
76259;SDS011;65076;52.362;6.588;2022-12-20T00:46:27;3.25;;;1.98;;
76259;SDS011;65076;52.362;6.588;2022-12-20T00:51:26;4.18;;;2.13;;
76259;SDS011;65076;52.362;6.588;2022-12-20T00:53:57;5.25;;;2.42;;
76259;SDS011;65076;52.362;6.588;2022-12-20T00:56:25;3.63;;;2.38;;
76259;SDS011;65076;52.362;6.588;2022-12-20T00:58:53;5.43;;;2.53;;
76259;SDS011;65076;52.362;6.588;2022-12-20T01:01:21;6.40;;;3.67;;
76259;SDS011;65076;52.362;6.588;2022-12-20T01:03:52;3.88;;;2.85;;
76259;SDS011;65076;52.362;6.588;2022-12-20T01:06:21;4.28;;;1.95;;
76259;SDS011;65076;52.362;6.588;2022-12-20T01:11:22;4.70;;;2.50;;
76259;SDS011;65076;52.362;6.588;2022-12-20T01:16:23;5.28;;;2.17;;
76259;SDS011;65076;52.362;6.588;2022-12-20T01:18:53;5.68;;;2.50;;
76259;SDS011;65076;52.362;6.588;2022-12-20T01:21:23;2.83;;;2.20;;
76259;SDS011;65076;52.362;6.588;2022-12-20T01:26:23;5.75;;;2.20;;
76259;SDS011;65076;52.362;6.588;2022-12-20T01:28:55;2.72;;;2.17;;
76259;SDS011;65076;52.362;6.588;2022-12-20T01:31:25;4.22;;;2.05;;
76259;SDS011;65076;52.362;6.588;2022-12-20T01:33:54;2.63;;;2.17;;
76259;SDS011;65076;52.362;6.588;2022-12-20T01:36:23;5.22;;;2.08;;
76259;SDS011;65076;52.362;6.588;2022-12-20T01:38:56;3.60;;;2.03;;
76259;SDS011;65076;52.362;6.588;2022-12-20T01:41:26;4.47;;;2.00;;
76259;SDS011;65076;52.362;6.588;2022-12-20T01:43:56;3.08;;;1.60;;
76259;SDS011;65076;52.362;6.588;2022-12-20T01:46:27;2.83;;;2.15;;
76259;SDS011;65076;52.362;6.588;2022-12-20T01:48:58;2.90;;;1.70;;
76259;SDS011;65076;52.362;6.588;2022-12-20T01:51:33;3.92;;;1.83;;
76259;SDS011;65076;52.362;6.588;2022-12-20T01:54:09;3.10;;;1.80;;
76259;SDS011;65076;52.362;6.588;2022-12-20T01:56:45;3.40;;;2.00;;
76259;SDS011;65076;52.362;6.588;2022-12-20T01:59:18;4.90;;;1.98;;
76259;SDS011;65076;52.362;6.588;2022-12-20T02:01:46;3.55;;;1.92;;
76259;SDS011;65076;52.362;6.588;2022-12-20T02:04:15;2.85;;;1.77;;
76259;SDS011;65076;52.362;6.588;2022-12-20T02:06:43;2.80;;;1.85;;
76259;SDS011;65076;52.362;6.588;2022-12-20T02:09:12;4.13;;;1.95;;
76259;SDS011;65076;52.362;6.588;2022-12-20T02:14:28;2.17;;;1.50;;
76259;SDS011;65076;52.362;6.588;2022-12-20T02:17:16;2.60;;;1.90;;
76259;SDS011;65076;52.362;6.588;2022-12-20T02:20:25;4.07;;;1.80;;
76259;SDS011;65076;52.362;6.588;2022-12-20T02:23:20;2.75;;;1.70;;
76259;SDS011;65076;52.362;6.588;2022-12-20T02:26:17;4.05;;;1.70;;
76259;SDS011;65076;52.362;6.588;2022-12-20T02:29:23;3.80;;;1.95;;
76259;SDS011;65076;52.362;6.588;2022-12-20T02:32:03;2.45;;;1.80;;
76259;SDS011;65076;52.362;6.588;2022-12-20T02:34:42;5.15;;;2.30;;
76259;SDS011;65076;52.362;6.588;2022-12-20T02:37:11;2.75;;;1.85;;
76259;SDS011;65076;52.362;6.588;2022-12-20T02:39:39;3.13;;;1.67;;
76259;SDS011;65076;52.362;6.588;2022-12-20T02:42:11;4.78;;;1.80;;
76259;SDS011;65076;52.362;6.588;2022-12-20T02:44:44;5.18;;;1.98;;
76259;SDS011;65076;52.362;6.588;2022-12-20T02:47:37;3.58;;;1.67;;
76259;SDS011;65076;52.362;6.588;2022-12-20T02:52:43;2.65;;;1.80;;
76259;SDS011;65076;52.362;6.588;2022-12-20T02:55:11;1.75;;;1.50;;
76259;SDS011;65076;52.362;6.588;2022-12-20T02:57:42;2.20;;;1.65;;
76259;SDS011;65076;52.362;6.588;2022-12-20T03:00:25;2.75;;;1.90;;
76259;SDS011;65076;52.362;6.588;2022-12-20T03:03:03;3.78;;;2.08;;
76259;SDS011;65076;52.362;6.588;2022-12-20T03:05:52;3.55;;;2.25;;
76259;SDS011;65076;52.362;6.588;2022-12-20T03:08:23;3.63;;;2.13;;
76259;SDS011;65076;52.362;6.588;2022-12-20T03:10:52;3.63;;;2.10;;
76259;SDS011;65076;52.362;6.588;2022-12-20T03:13:21;2.80;;;1.90;;
76259;SDS011;65076;52.362;6.588;2022-12-20T03:15:51;3.22;;;2.17;;
76259;SDS011;65076;52.362;6.588;2022-12-20T03:18:20;3.03;;;1.90;;
76259;SDS011;65076;52.362;6.588;2022-12-20T03:20:50;4.68;;;2.58;;
76259;SDS011;65076;52.362;6.588;2022-12-20T03:23:18;4.00;;;2.60;;
76259;SDS011;65076;52.362;6.588;2022-12-20T03:25:47;5.45;;;2.30;;
76259;SDS011;65076;52.362;6.588;2022-12-20T03:28:15;2.80;;;1.77;;
76259;SDS011;65076;52.362;6.588;2022-12-20T03:30:43;5.18;;;2.08;;
76259;SDS011;65076;52.362;6.588;2022-12-20T03:33:11;3.75;;;2.63;;
76259;SDS011;65076;52.362;6.588;2022-12-20T03:35:40;3.22;;;2.42;;
76259;SDS011;65076;52.362;6.588;2022-12-20T03:38:08;4.55;;;2.03;;
76259;SDS011;65076;52.362;6.588;2022-12-20T03:40:36;3.05;;;2.75;;
76259;SDS011;65076;52.362;6.588;2022-12-20T03:43:05;4.72;;;2.85;;
76259;SDS011;65076;52.362;6.588;2022-12-20T03:45:32;3.55;;;1.88;;
76259;SDS011;65076;52.362;6.588;2022-12-20T03:48:00;3.20;;;2.30;;
76259;SDS011;65076;52.362;6.588;2022-12-20T03:50:28;4.50;;;3.33;;
76259;SDS011;65076;52.362;6.588;2022-12-20T03:52:58;6.20;;;2.97;;
76259;SDS011;65076;52.362;6.588;2022-12-20T03:55:26;4.00;;;2.25;;
76259;SDS011;65076;52.362;6.588;2022-12-20T03:57:53;3.00;;;1.67;;
76259;SDS011;65076;52.362;6.588;2022-12-20T04:00:22;4.00;;;2.30;;
76259;SDS011;65076;52.362;6.588;2022-12-20T04:02:52;4.45;;;2.20;;
76259;SDS011;65076;52.362;6.588;2022-12-20T04:05:20;3.13;;;2.47;;
76259;SDS011;65076;52.362;6.588;2022-12-20T04:07:48;3.60;;;2.63;;
76259;SDS011;65076;52.362;6.588;2022-12-20T04:10:17;4.80;;;2.30;;
76259;SDS011;65076;52.362;6.588;2022-12-20T04:12:45;2.83;;;1.88;;
76259;SDS011;65076;52.362;6.588;2022-12-20T04:15:13;2.78;;;2.25;;
76259;SDS011;65076;52.362;6.588;2022-12-20T04:17:41;2.60;;;2.08;;
76259;SDS011;65076;52.362;6.588;2022-12-20T04:20:09;3.88;;;2.50;;
76259;SDS011;65076;52.362;6.588;2022-12-20T04:22:47;3.75;;;2.20;;
76259;SDS011;65076;52.362;6.588;2022-12-20T04:25:18;3.08;;;1.88;;
76259;SDS011;65076;52.362;6.588;2022-12-20T04:27:47;4.13;;;2.20;;
76259;SDS011;65076;52.362;6.588;2022-12-20T04:30:15;4.13;;;1.77;;
76259;SDS011;65076;52.362;6.588;2022-12-20T04:32:43;3.65;;;2.00;;
76259;SDS011;65076;52.362;6.588;2022-12-20T04:35:11;3.78;;;2.13;;
76259;SDS011;65076;52.362;6.588;2022-12-20T04:37:39;5.75;;;2.10;;
76259;SDS011;65076;52.362;6.588;2022-12-20T04:40:07;3.53;;;1.75;;
76259;SDS011;65076;52.362;6.588;2022-12-20T04:42:38;4.15;;;1.90;;
76259;SDS011;65076;52.362;6.588;2022-12-20T04:45:06;5.07;;;1.95;;
76259;SDS011;65076;52.362;6.588;2022-12-20T04:47:35;5.05;;;2.28;;
76259;SDS011;65076;52.362;6.588;2022-12-20T04:50:03;3.42;;;2.10;;
76259;SDS011;65076;52.362;6.588;2022-12-20T04:52:32;4.88;;;2.10;;
76259;SDS011;65076;52.362;6.588;2022-12-20T04:55:17;4.50;;;2.28;;
76259;SDS011;65076;52.362;6.588;2022-12-20T04:57:46;3.22;;;2.08;;
76259;SDS011;65076;52.362;6.588;2022-12-20T05:00:14;2.67;;;2.15;;
76259;SDS011;65076;52.362;6.588;2022-12-20T05:02:43;2.65;;;1.60;;
76259;SDS011;65076;52.362;6.588;2022-12-20T05:05:11;2.13;;;1.85;;
76259;SDS011;65076;52.362;6.588;2022-12-20T05:07:39;3.20;;;2.13;;
76259;SDS011;65076;52.362;6.588;2022-12-20T05:10:07;3.13;;;1.83;;
76259;SDS011;65076;52.362;6.588;2022-12-20T05:12:36;2.35;;;1.65;;
76259;SDS011;65076;52.362;6.588;2022-12-20T05:15:06;3.30;;;2.00;;
76259;SDS011;65076;52.362;6.588;2022-12-20T05:17:35;4.32;;;1.90;;
76259;SDS011;65076;52.362;6.588;2022-12-20T05:20:03;4.50;;;1.90;;
76259;SDS011;65076;52.362;6.588;2022-12-20T05:22:34;4.15;;;2.03;;
76259;SDS011;65076;52.362;6.588;2022-12-20T05:25:19;2.65;;;2.10;;
76259;SDS011;65076;52.362;6.588;2022-12-20T05:28:04;3.67;;;2.10;;
76259;SDS011;65076;52.362;6.588;2022-12-20T05:30:34;2.60;;;2.00;;
76259;SDS011;65076;52.362;6.588;2022-12-20T05:33:02;3.30;;;2.22;;
76259;SDS011;65076;52.362;6.588;2022-12-20T05:35:30;2.58;;;1.50;;
76259;SDS011;65076;52.362;6.588;2022-12-20T05:37:58;2.97;;;1.85;;
76259;SDS011;65076;52.362;6.588;2022-12-20T05:40:27;3.38;;;1.90;;
76259;SDS011;65076;52.362;6.588;2022-12-20T05:42:55;3.38;;;2.05;;
76259;SDS011;65076;52.362;6.588;2022-12-20T05:45:23;3.22;;;2.00;;
76259;SDS011;65076;52.362;6.588;2022-12-20T05:47:53;2.35;;;2.08;;
76259;SDS011;65076;52.362;6.588;2022-12-20T05:50:20;6.40;;;1.95;;
76259;SDS011;65076;52.362;6.588;2022-12-20T05:52:49;5.88;;;2.35;;
76259;SDS011;65076;52.362;6.588;2022-12-20T05:55:16;1.90;;;1.70;;
76259;SDS011;65076;52.362;6.588;2022-12-20T05:57:45;3.05;;;1.90;;
76259;SDS011;65076;52.362;6.588;2022-12-20T06:00:13;3.05;;;1.90;;
76259;SDS011;65076;52.362;6.588;2022-12-20T06:02:43;5.18;;;2.35;;
76259;SDS011;65076;52.362;6.588;2022-12-20T06:05:13;3.00;;;2.05;;
76259;SDS011;65076;52.362;6.588;2022-12-20T06:07:42;3.70;;;1.63;;
76259;SDS011;65076;52.362;6.588;2022-12-20T06:10:10;5.82;;;1.92;;
76259;SDS011;65076;52.362;6.588;2022-12-20T06:12:38;4.00;;;2.17;;
76259;SDS011;65076;52.362;6.588;2022-12-20T06:15:08;4.70;;;1.95;;
76259;SDS011;65076;52.362;6.588;2022-12-20T06:17:37;3.38;;;1.98;;
76259;SDS011;65076;52.362;6.588;2022-12-20T06:20:05;5.53;;;2.22;;
76259;SDS011;65076;52.362;6.588;2022-12-20T06:22:36;3.70;;;2.20;;
76259;SDS011;65076;52.362;6.588;2022-12-20T06:25:05;2.80;;;2.08;;
76259;SDS011;65076;52.362;6.588;2022-12-20T06:27:34;4.65;;;1.90;;
76259;SDS011;65076;52.362;6.588;2022-12-20T06:30:03;3.83;;;2.20;;
76259;SDS011;65076;52.362;6.588;2022-12-20T06:32:33;4.03;;;2.90;;
76259;SDS011;65076;52.362;6.588;2022-12-20T06:35:01;7.00;;;3.70;;
76259;SDS011;65076;52.362;6.588;2022-12-20T06:37:30;4.07;;;2.97;;
76259;SDS011;65076;52.362;6.588;2022-12-20T06:39:59;3.63;;;2.47;;
76259;SDS011;65076;52.362;6.588;2022-12-20T06:42:28;5.65;;;2.80;;
76259;SDS011;65076;52.362;6.588;2022-12-20T06:44:57;4.30;;;2.80;;
76259;SDS011;65076;52.362;6.588;2022-12-20T06:47:25;4.28;;;2.72;;
76259;SDS011;65076;52.362;6.588;2022-12-20T06:49:53;5.00;;;2.97;;
76259;SDS011;65076;52.362;6.588;2022-12-20T06:52:21;8.35;;;3.20;;
76259;SDS011;65076;52.362;6.588;2022-12-20T06:54:51;5.85;;;3.13;;
76259;SDS011;65076;52.362;6.588;2022-12-20T06:57:21;5.45;;;3.10;;
76259;SDS011;65076;52.362;6.588;2022-12-20T06:59:49;8.68;;;3.75;;
76259;SDS011;65076;52.362;6.588;2022-12-20T07:02:17;5.40;;;3.00;;
76259;SDS011;65076;52.362;6.588;2022-12-20T07:04:46;4.45;;;2.60;;
76259;SDS011;65076;52.362;6.588;2022-12-20T07:07:14;5.03;;;2.70;;
76259;SDS011;65076;52.362;6.588;2022-12-20T07:09:42;4.78;;;2.80;;
76259;SDS011;65076;52.362;6.588;2022-12-20T07:12:10;4.82;;;2.92;;
76259;SDS011;65076;52.362;6.588;2022-12-20T07:14:40;5.07;;;2.70;;
76259;SDS011;65076;52.362;6.588;2022-12-20T07:17:08;6.00;;;2.75;;
76259;SDS011;65076;52.362;6.588;2022-12-20T07:19:37;6.28;;;2.90;;
76259;SDS011;65076;52.362;6.588;2022-12-20T07:22:13;5.40;;;2.90;;
76259;SDS011;65076;52.362;6.588;2022-12-20T07:24:42;4.22;;;2.50;;
76259;SDS011;65076;52.362;6.588;2022-12-20T07:27:10;3.10;;;2.78;;
76259;SDS011;65076;52.362;6.588;2022-12-20T07:29:39;10.40;;;3.08;;
76259;SDS011;65076;52.362;6.588;2022-12-20T07:32:09;4.53;;;2.75;;
76259;SDS011;65076;52.362;6.588;2022-12-20T07:34:39;6.35;;;3.30;;
76259;SDS011;65076;52.362;6.588;2022-12-20T07:37:09;4.03;;;2.05;;
76259;SDS011;65076;52.362;6.588;2022-12-20T07:39:37;3.30;;;2.33;;
76259;SDS011;65076;52.362;6.588;2022-12-20T07:44:35;5.78;;;2.70;;
76259;SDS011;65076;52.362;6.588;2022-12-20T07:47:05;3.97;;;2.50;;
76259;SDS011;65076;52.362;6.588;2022-12-20T07:49:33;3.17;;;2.20;;
76259;SDS011;65076;52.362;6.588;2022-12-20T07:52:01;5.35;;;2.75;;
76259;SDS011;65076;52.362;6.588;2022-12-20T07:54:32;3.28;;;2.35;;
76259;SDS011;65076;52.362;6.588;2022-12-20T07:57:09;2.60;;;2.17;;
76259;SDS011;65076;52.362;6.588;2022-12-20T07:59:49;4.25;;;1.92;;
76259;SDS011;65076;52.362;6.588;2022-12-20T08:02:26;3.88;;;2.50;;
76259;SDS011;65076;52.362;6.588;2022-12-20T08:05:07;5.10;;;2.63;;
76259;SDS011;65076;52.362;6.588;2022-12-20T08:07:37;5.05;;;2.03;;
76259;SDS011;65076;52.362;6.588;2022-12-20T08:10:10;2.95;;;2.35;;
76259;SDS011;65076;52.362;6.588;2022-12-20T08:12:42;4.10;;;2.58;;
76259;SDS011;65076;52.362;6.588;2022-12-20T08:15:12;6.57;;;2.92;;
76259;SDS011;65076;52.362;6.588;2022-12-20T08:17:43;3.65;;;2.30;;
76259;SDS011;65076;52.362;6.588;2022-12-20T08:20:11;3.15;;;2.10;;
76259;SDS011;65076;52.362;6.588;2022-12-20T08:22:40;4.00;;;2.33;;
76259;SDS011;65076;52.362;6.588;2022-12-20T08:25:08;3.80;;;2.30;;
76259;SDS011;65076;52.362;6.588;2022-12-20T08:27:37;5.00;;;2.42;;
76259;SDS011;65076;52.362;6.588;2022-12-20T08:30:05;5.35;;;2.67;;
76259;SDS011;65076;52.362;6.588;2022-12-20T08:32:36;3.90;;;2.67;;
76259;SDS011;65076;52.362;6.588;2022-12-20T08:35:06;2.65;;;1.92;;
76259;SDS011;65076;52.362;6.588;2022-12-20T08:37:35;5.05;;;2.47;;
76259;SDS011;65076;52.362;6.588;2022-12-20T08:40:03;4.22;;;2.20;;
76259;SDS011;65076;52.362;6.588;2022-12-20T08:42:33;5.25;;;2.53;;
76259;SDS011;65076;52.362;6.588;2022-12-20T08:45:02;5.35;;;2.63;;
76259;SDS011;65076;52.362;6.588;2022-12-20T08:47:31;5.18;;;2.40;;
76259;SDS011;65076;52.362;6.588;2022-12-20T08:50:00;6.28;;;2.45;;
76259;SDS011;65076;52.362;6.588;2022-12-20T08:52:30;4.43;;;2.70;;
76259;SDS011;65076;52.362;6.588;2022-12-20T08:54:58;5.68;;;2.30;;
76259;SDS011;65076;52.362;6.588;2022-12-20T08:57:27;4.68;;;2.70;;
76259;SDS011;65076;52.362;6.588;2022-12-20T08:59:55;8.75;;;2.28;;
76259;SDS011;65076;52.362;6.588;2022-12-20T09:02:24;2.92;;;2.25;;
76259;SDS011;65076;52.362;6.588;2022-12-20T09:04:53;4.03;;;2.25;;
76259;SDS011;65076;52.362;6.588;2022-12-20T09:07:22;3.22;;;1.88;;
76259;SDS011;65076;52.362;6.588;2022-12-20T09:09:51;4.47;;;2.10;;
76259;SDS011;65076;52.362;6.588;2022-12-20T09:12:19;6.85;;;2.65;;
76259;SDS011;65076;52.362;6.588;2022-12-20T09:14:47;3.50;;;2.08;;
76259;SDS011;65076;52.362;6.588;2022-12-20T09:17:15;5.38;;;2.63;;
76259;SDS011;65076;52.362;6.588;2022-12-20T09:19:44;4.30;;;2.47;;
76259;SDS011;65076;52.362;6.588;2022-12-20T09:22:12;3.42;;;1.85;;
76259;SDS011;65076;52.362;6.588;2022-12-20T09:24:40;3.75;;;2.22;;
76259;SDS011;65076;52.362;6.588;2022-12-20T09:27:10;4.22;;;2.10;;
76259;SDS011;65076;52.362;6.588;2022-12-20T09:29:38;3.92;;;2.05;;
76259;SDS011;65076;52.362;6.588;2022-12-20T09:32:06;3.33;;;1.80;;
76259;SDS011;65076;52.362;6.588;2022-12-20T09:34:34;2.85;;;1.70;;
76259;SDS011;65076;52.362;6.588;2022-12-20T09:37:02;2.28;;;1.27;;
76259;SDS011;65076;52.362;6.588;2022-12-20T09:39:30;1.92;;;1.48;;
76259;SDS011;65076;52.362;6.588;2022-12-20T09:41:58;3.63;;;2.35;;
76259;SDS011;65076;52.362;6.588;2022-12-20T09:44:28;2.50;;;1.98;;
76259;SDS011;65076;52.362;6.588;2022-12-20T09:47:03;4.68;;;2.65;;
76259;SDS011;65076;52.362;6.588;2022-12-20T09:49:42;2.47;;;1.55;;
76259;SDS011;65076;52.362;6.588;2022-12-20T09:52:19;2.58;;;1.58;;
76259;SDS011;65076;52.362;6.588;2022-12-20T09:55:01;3.50;;;1.80;;
76259;SDS011;65076;52.362;6.588;2022-12-20T09:57:52;2.33;;;1.95;;
76259;SDS011;65076;52.362;6.588;2022-12-20T10:00:43;2.55;;;1.77;;
76259;SDS011;65076;52.362;6.588;2022-12-20T10:03:20;2.95;;;1.60;;
76259;SDS011;65076;52.362;6.588;2022-12-20T10:05:54;5.82;;;2.63;;
76259;SDS011;65076;52.362;6.588;2022-12-20T10:08:41;6.15;;;2.70;;
76259;SDS011;65076;52.362;6.588;2022-12-20T10:11:26;4.20;;;2.08;;
76259;SDS011;65076;52.362;6.588;2022-12-20T10:14:21;5.63;;;1.92;;
76259;SDS011;65076;52.362;6.588;2022-12-20T10:17:10;3.60;;;2.00;;
76259;SDS011;65076;52.362;6.588;2022-12-20T10:20:08;3.58;;;1.83;;
76259;SDS011;65076;52.362;6.588;2022-12-20T10:22:58;4.03;;;2.55;;
76259;SDS011;65076;52.362;6.588;2022-12-20T10:25:35;4.95;;;2.20;;
76259;SDS011;65076;52.362;6.588;2022-12-20T10:28:04;4.28;;;2.17;;
76259;SDS011;65076;52.362;6.588;2022-12-20T10:30:41;6.53;;;2.60;;
76259;SDS011;65076;52.362;6.588;2022-12-20T10:33:15;4.00;;;2.90;;
76259;SDS011;65076;52.362;6.588;2022-12-20T10:35:48;4.30;;;2.30;;
76259;SDS011;65076;52.362;6.588;2022-12-20T10:38:17;2.60;;;1.92;;
76259;SDS011;65076;52.362;6.588;2022-12-20T10:40:46;4.53;;;2.67;;
76259;SDS011;65076;52.362;6.588;2022-12-20T10:43:47;2.42;;;1.83;;
76259;SDS011;65076;52.362;6.588;2022-12-20T10:46:22;5.20;;;3.22;;
76259;SDS011;65076;52.362;6.588;2022-12-20T10:52:01;5.55;;;2.42;;
76259;SDS011;65076;52.362;6.588;2022-12-20T10:54:39;3.45;;;2.33;;
76259;SDS011;65076;52.362;6.588;2022-12-20T10:57:12;4.90;;;2.65;;
76259;SDS011;65076;52.362;6.588;2022-12-20T10:59:48;5.43;;;2.10;;
76259;SDS011;65076;52.362;6.588;2022-12-20T11:02:23;4.38;;;2.50;;
76259;SDS011;65076;52.362;6.588;2022-12-20T11:05:17;4.82;;;2.55;;
76259;SDS011;65076;52.362;6.588;2022-12-20T11:07:51;3.67;;;2.60;;
76259;SDS011;65076;52.362;6.588;2022-12-20T11:10:43;5.05;;;3.22;;
76259;SDS011;65076;52.362;6.588;2022-12-20T11:13:19;4.55;;;2.22;;
76259;SDS011;65076;52.362;6.588;2022-12-20T11:15:53;6.95;;;3.15;;
76259;SDS011;65076;52.362;6.588;2022-12-20T11:18:29;7.57;;;3.05;;
76259;SDS011;65076;52.362;6.588;2022-12-20T11:21:16;3.20;;;1.92;;
76259;SDS011;65076;52.362;6.588;2022-12-20T11:23:57;5.10;;;2.45;;
76259;SDS011;65076;52.362;6.588;2022-12-20T11:26:41;4.75;;;3.25;;
76259;SDS011;65076;52.362;6.588;2022-12-20T11:29:32;3.35;;;2.38;;
76259;SDS011;65076;52.362;6.588;2022-12-20T11:32:32;7.03;;;3.13;;
76259;SDS011;65076;52.362;6.588;2022-12-20T11:35:21;5.13;;;2.22;;
76259;SDS011;65076;52.362;6.588;2022-12-20T11:38:05;4.95;;;2.60;;
76259;SDS011;65076;52.362;6.588;2022-12-20T11:40:49;6.05;;;2.10;;
76259;SDS011;65076;52.362;6.588;2022-12-20T11:43:38;7.25;;;4.18;;
76259;SDS011;65076;52.362;6.588;2022-12-20T11:46:49;6.40;;;3.00;;
76259;SDS011;65076;52.362;6.588;2022-12-20T11:49:41;7.75;;;4.18;;
76259;SDS011;65076;52.362;6.588;2022-12-20T11:52:28;7.70;;;2.53;;
76259;SDS011;65076;52.362;6.588;2022-12-20T11:55:06;2.85;;;2.25;;
76259;SDS011;65076;52.362;6.588;2022-12-20T11:57:48;7.05;;;1.92;;
76259;SDS011;65076;52.362;6.588;2022-12-20T12:00:48;5.60;;;3.22;;
76259;SDS011;65076;52.362;6.588;2022-12-20T12:03:29;6.55;;;2.78;;
76259;SDS011;65076;52.362;6.588;2022-12-20T12:06:02;4.85;;;2.55;;
76259;SDS011;65076;52.362;6.588;2022-12-20T12:08:40;7.40;;;3.35;;
76259;SDS011;65076;52.362;6.588;2022-12-20T12:11:18;5.53;;;3.25;;
76259;SDS011;65076;52.362;6.588;2022-12-20T12:14:14;6.55;;;3.08;;
76259;SDS011;65076;52.362;6.588;2022-12-20T12:16:56;3.72;;;2.55;;
76259;SDS011;65076;52.362;6.588;2022-12-20T12:19:30;5.07;;;2.65;;
76259;SDS011;65076;52.362;6.588;2022-12-20T12:22:04;4.18;;;2.60;;
76259;SDS011;65076;52.362;6.588;2022-12-20T12:24:39;5.22;;;2.70;;
76259;SDS011;65076;52.362;6.588;2022-12-20T12:27:19;4.80;;;2.83;;
76259;SDS011;65076;52.362;6.588;2022-12-20T12:29:50;6.00;;;3.05;;
76259;SDS011;65076;52.362;6.588;2022-12-20T12:32:23;4.82;;;2.60;;
76259;SDS011;65076;52.362;6.588;2022-12-20T12:35:04;4.90;;;2.40;;
76259;SDS011;65076;52.362;6.588;2022-12-20T12:38:14;4.82;;;2.75;;
76259;SDS011;65076;52.362;6.588;2022-12-20T12:41:09;5.85;;;2.95;;
76259;SDS011;65076;52.362;6.588;2022-12-20T12:44:35;4.47;;;2.60;;
76259;SDS011;65076;52.362;6.588;2022-12-20T12:47:13;3.30;;;2.30;;
76259;SDS011;65076;52.362;6.588;2022-12-20T12:49:48;4.13;;;2.45;;
76259;SDS011;65076;52.362;6.588;2022-12-20T12:52:28;8.43;;;2.90;;
76259;SDS011;65076;52.362;6.588;2022-12-20T12:58:13;4.82;;;2.60;;
76259;SDS011;65076;52.362;6.588;2022-12-20T13:01:28;4.82;;;2.60;;
76259;SDS011;65076;52.362;6.588;2022-12-20T13:04:23;4.95;;;2.40;;
76259;SDS011;65076;52.362;6.588;2022-12-20T13:07:00;5.53;;;2.95;;
76259;SDS011;65076;52.362;6.588;2022-12-20T13:09:51;5.80;;;3.70;;
76259;SDS011;65076;52.362;6.588;2022-12-20T13:18:34;4.10;;;3.15;;
76259;SDS011;65076;52.362;6.588;2022-12-20T13:24:27;6.45;;;3.60;;
76259;SDS011;65076;52.362;6.588;2022-12-20T13:27:17;6.97;;;3.40;;
76259;SDS011;65076;52.362;6.588;2022-12-20T13:33:02;5.15;;;3.17;;
76259;SDS011;65076;52.362;6.588;2022-12-20T13:38:58;5.55;;;2.55;;
76259;SDS011;65076;52.362;6.588;2022-12-20T13:41:30;4.13;;;2.17;;
76259;SDS011;65076;52.362;6.588;2022-12-20T13:47:19;4.80;;;2.65;;
76259;SDS011;65076;52.362;6.588;2022-12-20T13:50:00;5.38;;;2.55;;
76259;SDS011;65076;52.362;6.588;2022-12-20T13:52:51;5.70;;;2.30;;
76259;SDS011;65076;52.362;6.588;2022-12-20T13:55:25;4.20;;;2.42;;
76259;SDS011;65076;52.362;6.588;2022-12-20T13:58:05;7.70;;;3.40;;
76259;SDS011;65076;52.362;6.588;2022-12-20T14:00:43;4.97;;;2.40;;
76259;SDS011;65076;52.362;6.588;2022-12-20T14:03:16;3.53;;;2.65;;
76259;SDS011;65076;52.362;6.588;2022-12-20T14:05:50;5.57;;;2.53;;
76259;SDS011;65076;52.362;6.588;2022-12-20T14:08:29;5.93;;;3.25;;
76259;SDS011;65076;52.362;6.588;2022-12-20T14:11:07;5.30;;;2.20;;
76259;SDS011;65076;52.362;6.588;2022-12-20T14:13:37;5.40;;;2.80;;
76259;SDS011;65076;52.362;6.588;2022-12-20T14:16:06;3.60;;;2.50;;
76259;SDS011;65076;52.362;6.588;2022-12-20T14:18:41;6.47;;;2.97;;
76259;SDS011;65076;52.362;6.588;2022-12-20T14:21:15;5.88;;;3.30;;
76259;SDS011;65076;52.362;6.588;2022-12-20T14:23:47;3.55;;;2.15;;
76259;SDS011;65076;52.362;6.588;2022-12-20T14:26:18;4.00;;;1.95;;
76259;SDS011;65076;52.362;6.588;2022-12-20T14:28:52;5.05;;;2.80;;
76259;SDS011;65076;52.362;6.588;2022-12-20T14:31:24;6.93;;;3.53;;
76259;SDS011;65076;52.362;6.588;2022-12-20T14:34:02;5.18;;;3.60;;
76259;SDS011;65076;52.362;6.588;2022-12-20T14:36:38;3.55;;;2.47;;
76259;SDS011;65076;52.362;6.588;2022-12-20T14:39:25;7.70;;;4.35;;
76259;SDS011;65076;52.362;6.588;2022-12-20T14:41:55;5.45;;;2.55;;
76259;SDS011;65076;52.362;6.588;2022-12-20T14:44:26;5.63;;;3.42;;
76259;SDS011;65076;52.362;6.588;2022-12-20T14:46:57;5.63;;;3.75;;
76259;SDS011;65076;52.362;6.588;2022-12-20T14:49:28;5.78;;;2.92;;
76259;SDS011;65076;52.362;6.588;2022-12-20T14:52:06;6.03;;;4.13;;
76259;SDS011;65076;52.362;6.588;2022-12-20T14:54:43;4.15;;;2.80;;
76259;SDS011;65076;52.362;6.588;2022-12-20T14:57:37;4.65;;;3.25;;
76259;SDS011;65076;52.362;6.588;2022-12-20T15:00:14;4.38;;;2.83;;
76259;SDS011;65076;52.362;6.588;2022-12-20T15:02:51;5.50;;;3.38;;
76259;SDS011;65076;52.362;6.588;2022-12-20T15:05:49;6.93;;;2.92;;
76259;SDS011;65076;52.362;6.588;2022-12-20T15:08:20;7.45;;;3.25;;
76259;SDS011;65076;52.362;6.588;2022-12-20T15:10:55;4.45;;;3.63;;
76259;SDS011;65076;52.362;6.588;2022-12-20T15:13:30;4.60;;;3.05;;
76259;SDS011;65076;52.362;6.588;2022-12-20T15:16:01;4.60;;;2.58;;
76259;SDS011;65076;52.362;6.588;2022-12-20T15:18:39;4.38;;;2.38;;
76259;SDS011;65076;52.362;6.588;2022-12-20T15:21:14;6.25;;;3.20;;
76259;SDS011;65076;52.362;6.588;2022-12-20T15:23:51;10.10;;;5.85;;
76259;SDS011;65076;52.362;6.588;2022-12-20T15:26:24;13.25;;;7.07;;
76259;SDS011;65076;52.362;6.588;2022-12-20T15:28:54;5.15;;;3.20;;
76259;SDS011;65076;52.362;6.588;2022-12-20T15:31:23;4.63;;;3.38;;
76259;SDS011;65076;52.362;6.588;2022-12-20T15:33:59;6.60;;;3.97;;
76259;SDS011;65076;52.362;6.588;2022-12-20T15:36:30;5.22;;;3.15;;
76259;SDS011;65076;52.362;6.588;2022-12-20T15:38:59;6.60;;;4.13;;
76259;SDS011;65076;52.362;6.588;2022-12-20T15:41:45;5.68;;;3.45;;
76259;SDS011;65076;52.362;6.588;2022-12-20T15:44:16;6.85;;;3.80;;
76259;SDS011;65076;52.362;6.588;2022-12-20T15:46:49;9.35;;;5.47;;
76259;SDS011;65076;52.362;6.588;2022-12-20T15:49:18;10.38;;;6.05;;
76259;SDS011;65076;52.362;6.588;2022-12-20T15:51:51;13.65;;;7.05;;
76259;SDS011;65076;52.362;6.588;2022-12-20T15:54:21;6.18;;;4.05;;
76259;SDS011;65076;52.362;6.588;2022-12-20T15:56:54;10.48;;;5.68;;
76259;SDS011;65076;52.362;6.588;2022-12-20T15:59:24;6.18;;;4.40;;
76259;SDS011;65076;52.362;6.588;2022-12-20T16:02:16;7.22;;;4.72;;
76259;SDS011;65076;52.362;6.588;2022-12-20T16:04:50;5.25;;;4.03;;
76259;SDS011;65076;52.362;6.588;2022-12-20T16:07:18;4.68;;;2.67;;
76259;SDS011;65076;52.362;6.588;2022-12-20T16:09:47;5.28;;;4.53;;
76259;SDS011;65076;52.362;6.588;2022-12-20T16:12:18;4.97;;;3.35;;